createdAt,value
2018-10-03T00:01:18.242Z,15.70
2018-10-03T00:03:48.123Z,15.70
2018-10-03T00:06:18.053Z,15.60
2018-10-03T00:08:47.529Z,15.60
2018-10-03T00:11:16.838Z,15.60
2018-10-03T00:13:46.408Z,15.60
2018-10-03T00:16:15.735Z,15.60
2018-10-03T00:18:45.054Z,15.60
2018-10-03T00:21:14.396Z,15.60
2018-10-03T00:23:43.698Z,15.60
2018-10-03T00:26:13.020Z,15.60
2018-10-03T00:28:42.352Z,15.60
2018-10-03T00:31:11.697Z,15.60
2018-10-03T00:33:41.012Z,15.60
2018-10-03T00:36:10.386Z,15.60
2018-10-03T00:38:39.752Z,15.60
2018-10-03T00:41:09.423Z,15.60
2018-10-03T00:43:38.723Z,15.60
2018-10-03T00:46:08.410Z,15.60
2018-10-03T00:48:37.712Z,15.60
2018-10-03T00:51:07.092Z,15.60
2018-10-03T00:53:36.451Z,15.60
2018-10-03T00:56:06.284Z,15.60
2018-10-03T00:58:35.691Z,15.60
2018-10-03T01:01:05.080Z,15.60
2018-10-03T01:03:34.492Z,15.60
2018-10-03T01:06:03.844Z,15.60
2018-10-03T01:08:33.145Z,15.60
2018-10-03T01:11:02.858Z,15.60
2018-10-03T01:13:32.168Z,15.60
2018-10-03T01:16:01.542Z,15.60
2018-10-03T01:18:30.981Z,15.60
2018-10-03T01:21:00.425Z,15.60
2018-10-03T01:23:29.950Z,15.60
2018-10-03T01:25:59.421Z,15.60
2018-10-03T01:28:28.813Z,15.60
2018-10-03T01:30:58.955Z,15.60
2018-10-03T01:33:28.558Z,15.70
2018-10-03T01:35:58.037Z,15.70
2018-10-03T01:38:27.645Z,15.70
2018-10-03T01:40:57.080Z,15.70
2018-10-03T01:43:26.493Z,15.70
2018-10-03T01:45:55.837Z,15.70
2018-10-03T01:48:25.277Z,15.70
2018-10-03T01:50:54.648Z,15.70
2018-10-03T01:53:24.198Z,15.60
2018-10-03T01:55:53.581Z,15.60
2018-10-03T01:58:22.922Z,15.60
2018-10-03T02:00:52.409Z,15.60
2018-10-03T02:03:21.755Z,15.60
2018-10-03T02:05:51.147Z,15.60
2018-10-03T02:08:20.562Z,15.60
2018-10-03T02:10:50.037Z,15.60
2018-10-03T02:13:19.441Z,15.60
2018-10-03T02:15:49.415Z,15.60
2018-10-03T02:18:18.785Z,15.60
2018-10-03T02:20:48.120Z,15.60
2018-10-03T02:23:17.688Z,15.60
2018-10-03T02:25:47.085Z,15.60
2018-10-03T02:28:16.461Z,15.60
2018-10-03T02:30:46.814Z,15.60
2018-10-03T02:33:16.200Z,15.60
2018-10-03T02:35:46.153Z,15.60
2018-10-03T02:38:15.618Z,15.60
2018-10-03T02:40:46.009Z,15.50
2018-10-03T02:43:15.405Z,15.50
2018-10-03T02:45:44.816Z,15.50
2018-10-03T02:48:14.214Z,15.50
2018-10-03T02:50:44.128Z,15.50
2018-10-03T02:53:14.024Z,15.50
2018-10-03T02:55:43.454Z,15.50
2018-10-03T02:58:12.937Z,15.50
2018-10-03T03:00:42.301Z,15.50
2018-10-03T03:03:11.692Z,15.50
2018-10-03T03:05:41.094Z,15.50
2018-10-03T03:08:10.446Z,15.50
2018-10-03T03:10:40.030Z,15.50
2018-10-03T03:13:09.442Z,15.50
2018-10-03T03:15:38.966Z,15.50
2018-10-03T03:18:08.490Z,15.50
2018-10-03T03:20:38.039Z,15.50
2018-10-03T03:23:08.380Z,15.50
2018-10-03T03:25:37.773Z,15.50
2018-10-03T03:28:07.189Z,15.50
2018-10-03T03:30:36.530Z,15.40
2018-10-03T03:33:06.225Z,15.40
2018-10-03T03:35:36.409Z,15.40
2018-10-03T03:38:05.912Z,15.40
2018-10-03T03:40:35.413Z,15.40
2018-10-03T03:43:05.871Z,15.40
2018-10-03T03:45:35.421Z,15.40
2018-10-03T03:48:05.019Z,15.40
2018-10-03T03:50:34.420Z,15.30
2018-10-03T03:53:03.846Z,15.30
2018-10-03T03:55:33.810Z,15.30
2018-10-03T03:58:03.205Z,15.30
2018-10-03T04:00:32.685Z,15.30
2018-10-03T04:03:02.145Z,15.30
2018-10-03T04:05:31.628Z,15.30
2018-10-03T04:08:01.100Z,15.30
2018-10-03T04:10:30.529Z,15.30
2018-10-03T04:12:59.930Z,15.40
2018-10-03T04:15:29.391Z,15.40
2018-10-03T04:17:58.978Z,15.40
2018-10-03T04:20:28.445Z,15.40
2018-10-03T04:22:58.029Z,15.40
2018-10-03T04:25:27.628Z,15.40
2018-10-03T04:27:57.134Z,15.40
2018-10-03T04:30:26.709Z,15.40
2018-10-03T04:32:56.193Z,15.40
2018-10-03T04:35:25.691Z,15.40
2018-10-03T04:37:55.198Z,15.50
2018-10-03T04:40:24.656Z,15.50
2018-10-03T04:42:54.227Z,15.50
2018-10-03T04:45:23.818Z,15.50
2018-10-03T04:47:53.266Z,15.50
2018-10-03T04:50:22.643Z,15.50
2018-10-03T04:52:52.125Z,15.50
2018-10-03T04:55:21.490Z,15.50
2018-10-03T04:57:50.862Z,15.50
2018-10-03T05:00:20.200Z,15.50
2018-10-03T05:02:49.546Z,15.50
2018-10-03T05:05:19.905Z,15.50
2018-10-03T05:07:49.275Z,15.50
2018-10-03T05:10:18.654Z,15.50
2018-10-03T05:12:48.111Z,15.50
2018-10-03T05:15:17.538Z,15.50
2018-10-03T05:17:46.884Z,15.60
2018-10-03T05:20:16.289Z,15.60
2018-10-03T05:22:45.630Z,15.60
2018-10-03T05:25:15.156Z,15.60
2018-10-03T05:27:44.593Z,15.60
2018-10-03T05:30:13.985Z,15.60
2018-10-03T05:32:43.416Z,15.60
2018-10-03T05:35:12.881Z,15.60
2018-10-03T05:37:42.473Z,15.60
2018-10-03T05:40:12.099Z,15.60
2018-10-03T05:42:41.435Z,15.60
2018-10-03T05:45:11.141Z,15.60
2018-10-03T05:47:40.508Z,15.70
2018-10-03T05:50:09.885Z,15.70
2018-10-03T05:52:39.261Z,15.70
2018-10-03T05:55:08.671Z,15.70
2018-10-03T05:57:38.045Z,15.70
2018-10-03T06:00:07.517Z,15.70
2018-10-03T06:02:37.203Z,15.70
2018-10-03T06:05:06.914Z,15.70
2018-10-03T06:07:37.060Z,15.70
2018-10-03T06:10:07.416Z,15.80
2018-10-03T06:12:36.765Z,15.80
2018-10-03T06:15:06.976Z,15.80
2018-10-03T06:17:36.584Z,15.80
2018-10-03T06:20:07.365Z,15.80
2018-10-03T06:22:36.736Z,15.80
2018-10-03T06:25:06.336Z,15.80
2018-10-03T06:27:35.712Z,15.80
2018-10-03T06:30:05.320Z,15.90
2018-10-03T06:32:34.728Z,15.90
2018-10-03T06:35:04.468Z,15.90
2018-10-03T06:37:33.825Z,15.90
2018-10-03T06:40:03.300Z,15.90
2018-10-03T06:42:32.687Z,15.90
2018-10-03T06:45:02.206Z,16.00
2018-10-03T06:47:31.564Z,16.00
2018-10-03T06:50:01.088Z,16.00
2018-10-03T06:52:30.479Z,16.00
2018-10-03T06:54:59.837Z,16.00
2018-10-03T06:57:29.193Z,16.00
2018-10-03T06:59:58.687Z,16.00
2018-10-03T07:02:28.055Z,16.10
2018-10-03T07:04:57.443Z,16.10
2018-10-03T07:07:26.965Z,16.10
2018-10-03T07:09:56.485Z,16.10
2018-10-03T07:12:25.977Z,16.10
2018-10-03T07:14:55.349Z,16.10
2018-10-03T07:17:25.073Z,16.10
2018-10-03T07:19:54.424Z,16.10
2018-10-03T07:22:23.885Z,16.10
2018-10-03T07:24:53.271Z,16.10
2018-10-03T07:27:22.707Z,16.10
2018-10-03T07:29:52.076Z,16.10
2018-10-03T07:32:21.450Z,16.20
2018-10-03T07:34:50.826Z,16.20
2018-10-03T07:37:20.249Z,16.20
2018-10-03T07:39:49.685Z,16.20
2018-10-03T07:42:19.048Z,16.30
2018-10-03T07:44:48.403Z,16.30
2018-10-03T07:47:17.859Z,16.30
2018-10-03T07:49:47.288Z,16.30
2018-10-03T07:52:17.150Z,16.40
2018-10-03T07:54:46.796Z,16.40
2018-10-03T07:57:16.174Z,16.40
2018-10-03T07:59:45.536Z,16.40
2018-10-03T08:02:15.017Z,16.50
2018-10-03T08:04:44.416Z,16.50
2018-10-03T08:07:13.815Z,16.50
2018-10-03T08:09:43.220Z,16.50
2018-10-03T08:12:12.581Z,16.50
2018-10-03T08:14:42.064Z,16.60
2018-10-03T08:17:11.443Z,16.60
2018-10-03T08:19:40.849Z,16.60
2018-10-03T08:22:10.260Z,16.60
2018-10-03T08:24:39.723Z,16.70
2018-10-03T08:27:09.061Z,16.70
2018-10-03T08:29:38.465Z,16.70
2018-10-03T08:32:07.849Z,16.80
2018-10-03T08:34:37.302Z,16.80
2018-10-03T08:37:06.783Z,16.80
2018-10-03T08:39:36.173Z,16.90
2018-10-03T08:42:05.733Z,16.90
2018-10-03T08:44:35.146Z,16.90
2018-10-03T08:47:05.935Z,17.00
2018-10-03T08:49:35.565Z,17.00
2018-10-03T08:52:05.634Z,17.10
2018-10-03T08:54:35.264Z,17.10
2018-10-03T08:57:05.307Z,17.20
2018-10-03T08:59:34.802Z,17.20
2018-10-03T09:02:04.179Z,17.30
2018-10-03T09:04:33.517Z,17.30
2018-10-03T09:07:03.035Z,17.30
2018-10-03T09:09:32.407Z,17.30
2018-10-03T09:12:02.154Z,17.40
2018-10-03T09:14:31.962Z,17.40
2018-10-03T09:17:01.644Z,17.40
2018-10-03T09:19:31.912Z,17.40
2018-10-03T09:22:01.606Z,17.50
2018-10-03T09:24:31.224Z,17.50
2018-10-03T09:27:02.251Z,17.50
2018-10-03T09:29:32.048Z,17.50
2018-10-03T09:32:01.460Z,17.50
2018-10-03T09:34:30.789Z,17.50
2018-10-03T09:37:00.141Z,17.50
2018-10-03T09:39:29.526Z,17.50
2018-10-03T09:41:58.864Z,17.50
2018-10-03T09:44:28.277Z,17.50
2018-10-03T09:46:57.620Z,17.50
2018-10-03T09:49:26.986Z,17.50
2018-10-03T09:51:56.388Z,17.50
2018-10-03T09:54:25.734Z,17.50
2018-10-03T09:56:55.065Z,17.50
2018-10-03T09:59:24.461Z,17.50
2018-10-03T10:01:53.848Z,17.50
2018-10-03T10:04:23.217Z,17.60
2018-10-03T10:06:52.648Z,17.60
2018-10-03T10:09:22.043Z,17.60
2018-10-03T10:11:51.525Z,17.60
2018-10-03T10:14:20.883Z,17.70
2018-10-03T10:16:50.520Z,17.70
2018-10-03T10:19:20.016Z,17.70
2018-10-03T10:21:49.460Z,17.70
2018-10-03T10:24:18.906Z,17.70
2018-10-03T10:26:48.426Z,17.70
2018-10-03T10:29:17.973Z,17.70
2018-10-03T10:31:47.394Z,17.70
2018-10-03T10:34:16.796Z,17.70
2018-10-03T10:36:46.159Z,17.70
2018-10-03T10:39:15.484Z,17.80
2018-10-03T10:41:44.891Z,17.80
2018-10-03T10:44:14.322Z,17.90
2018-10-03T10:46:43.694Z,17.90
2018-10-03T10:49:13.091Z,18.00
2018-10-03T10:51:42.475Z,18.00
2018-10-03T10:54:11.823Z,18.00
2018-10-03T10:56:41.215Z,18.00
2018-10-03T10:59:10.582Z,18.00
2018-10-03T11:01:39.996Z,18.00
2018-10-03T11:04:09.415Z,18.00
2018-10-03T11:06:38.816Z,18.10
2018-10-03T11:09:08.669Z,18.10
2018-10-03T11:11:38.020Z,18.10
2018-10-03T11:14:07.415Z,18.10
2018-10-03T11:16:36.926Z,18.10
2018-10-03T11:19:07.616Z,18.10
2018-10-03T11:21:36.975Z,18.10
2018-10-03T11:24:06.501Z,18.10
2018-10-03T11:26:35.931Z,18.10
2018-10-03T11:29:05.644Z,18.10
2018-10-03T11:31:35.058Z,18.10
2018-10-03T11:34:04.538Z,18.10
2018-10-03T11:36:34.023Z,18.20
2018-10-03T11:39:05.585Z,18.20
2018-10-03T11:41:35.004Z,18.20
2018-10-03T11:44:04.460Z,18.20
2018-10-03T11:46:33.933Z,18.20
2018-10-03T11:49:03.556Z,18.20
2018-10-03T11:51:32.948Z,18.20
2018-10-03T11:54:02.400Z,18.20
2018-10-03T11:56:35.057Z,18.10
2018-10-03T12:02:11.815Z,18.10
2018-10-03T12:04:41.244Z,18.10
2018-10-03T12:07:10.771Z,18.10
2018-10-03T12:09:40.259Z,18.00
2018-10-03T12:12:09.759Z,18.00
2018-10-03T12:14:39.229Z,18.00
2018-10-03T12:17:08.872Z,18.00
2018-10-03T12:25:59.100Z,17.80
2018-10-03T12:28:38.619Z,17.80
2018-10-03T12:31:08.925Z,17.80
2018-10-03T12:33:38.309Z,17.80
2018-10-03T12:36:07.832Z,17.80
2018-10-03T12:38:37.187Z,17.80
2018-10-03T12:41:06.643Z,17.80
2018-10-03T12:43:36.221Z,17.80
2018-10-03T12:46:05.731Z,17.90
2018-10-03T12:48:35.149Z,17.90
2018-10-03T12:53:48.869Z,17.90
2018-10-03T12:56:21.246Z,17.90
2018-10-03T12:58:50.961Z,17.90
2018-10-03T13:01:20.860Z,17.90
2018-10-03T13:03:50.186Z,17.80
2018-10-03T13:06:19.579Z,17.90
2018-10-03T13:08:49.002Z,17.90
2018-10-03T13:11:18.560Z,17.90
2018-10-03T13:13:47.948Z,17.90
2018-10-03T13:16:17.443Z,17.90
2018-10-03T13:18:46.938Z,17.90
2018-10-03T13:21:16.463Z,17.90
2018-10-03T13:23:45.855Z,17.80
2018-10-03T13:26:15.269Z,17.90
2018-10-03T13:28:44.664Z,17.90
2018-10-03T13:31:14.517Z,17.90
2018-10-03T13:33:44.009Z,17.80
2018-10-03T13:36:13.446Z,17.90
2018-10-03T13:38:42.958Z,17.90
2018-10-03T13:41:12.482Z,17.90
2018-10-03T13:43:42.030Z,17.90
2018-10-03T13:46:11.543Z,17.90
2018-10-03T13:48:41.024Z,17.90
2018-10-03T13:51:10.637Z,18.00
2018-10-03T13:53:40.061Z,18.00
2018-10-03T13:56:09.585Z,18.00
2018-10-03T13:58:39.002Z,18.00
2018-10-03T14:01:08.406Z,18.00
2018-10-03T14:03:37.857Z,18.00
2018-10-03T14:06:07.257Z,18.00
2018-10-03T14:08:36.655Z,18.00
2018-10-03T14:11:06.125Z,18.00
2018-10-03T14:13:35.709Z,18.00
2018-10-03T14:16:05.287Z,18.00
2018-10-03T14:18:35.396Z,18.00
2018-10-03T14:21:04.834Z,18.00
2018-10-03T14:23:34.277Z,18.00
2018-10-03T14:26:03.786Z,18.10
2018-10-03T14:28:33.347Z,18.10
2018-10-03T14:31:03.791Z,18.10
2018-10-03T14:33:33.319Z,18.10
2018-10-03T14:36:09.737Z,18.10
2018-10-03T14:38:39.916Z,18.10
2018-10-03T14:41:09.742Z,18.10
2018-10-03T14:43:39.214Z,18.20
2018-10-03T14:46:08.710Z,18.20
2018-10-03T14:48:38.196Z,18.20
2018-10-03T14:51:07.893Z,18.20
2018-10-03T14:53:37.394Z,18.20
2018-10-03T14:56:07.199Z,18.10
2018-10-03T15:01:10.422Z,18.20
2018-10-03T15:03:39.924Z,18.20
2018-10-03T15:06:09.390Z,18.20
2018-10-03T15:08:38.846Z,18.20
2018-10-03T15:11:08.309Z,18.20
2018-10-03T15:13:37.912Z,18.20
2018-10-03T15:16:08.024Z,18.20
2018-10-03T15:18:37.426Z,18.20
2018-10-03T15:21:06.921Z,18.10
2018-10-03T15:23:36.382Z,18.10
2018-10-03T15:26:05.867Z,18.10
2018-10-03T15:28:35.341Z,18.10
2018-10-03T15:31:04.754Z,18.10
2018-10-03T15:33:34.239Z,18.10
2018-10-03T15:36:03.753Z,18.10
2018-10-03T15:38:33.239Z,18.00
2018-10-03T15:41:02.775Z,18.00
2018-10-03T15:43:32.336Z,18.00
2018-10-03T15:46:01.856Z,18.00
2018-10-03T15:48:31.282Z,18.00
2018-10-03T15:51:00.993Z,18.00
2018-10-03T15:53:31.239Z,18.00
2018-10-03T15:56:01.992Z,18.00
2018-10-03T15:58:31.834Z,18.00
2018-10-03T16:01:01.448Z,18.00
2018-10-03T16:03:31.210Z,18.00
2018-10-03T16:06:00.959Z,18.00
2018-10-03T16:08:30.650Z,18.00
2018-10-03T16:11:00.186Z,18.00
2018-10-03T16:13:29.664Z,17.90
2018-10-03T16:16:01.170Z,17.90
2018-10-03T16:18:31.722Z,17.90
2018-10-03T16:21:01.320Z,17.90
2018-10-03T16:23:30.767Z,17.90
2018-10-03T16:26:00.391Z,17.90
2018-10-03T16:28:30.647Z,17.80
2018-10-03T16:31:00.053Z,17.80
2018-10-03T16:33:30.358Z,17.80
2018-10-03T16:35:59.943Z,17.80
2018-10-03T16:38:29.453Z,17.80
2018-10-03T16:40:59.098Z,17.80
2018-10-03T16:43:28.806Z,17.80
2018-10-03T16:45:58.277Z,17.70
2018-10-03T16:48:27.811Z,17.70
2018-10-03T16:50:57.316Z,17.70
2018-10-03T16:53:26.800Z,17.70
2018-10-03T16:55:56.510Z,17.70
2018-10-03T16:58:26.019Z,17.70
2018-10-03T17:00:56.569Z,17.70
2018-10-03T17:03:26.027Z,17.60
2018-10-03T17:05:55.719Z,17.60
2018-10-03T17:08:25.171Z,17.60
2018-10-03T17:10:54.607Z,17.60
2018-10-03T17:13:23.953Z,17.60
2018-10-03T17:15:53.373Z,17.50
2018-10-03T17:18:22.829Z,17.50
2018-10-03T17:20:52.277Z,17.50
2018-10-03T17:23:21.767Z,17.50
2018-10-03T17:25:51.490Z,17.40
2018-10-03T17:28:20.962Z,17.40
2018-10-03T17:30:50.536Z,17.40
2018-10-03T17:33:20.035Z,17.40
2018-10-03T17:35:49.611Z,17.40
2018-10-03T17:38:19.432Z,17.40
2018-10-03T17:40:48.998Z,17.30
2018-10-03T17:43:18.584Z,17.30
2018-10-03T17:45:48.035Z,17.30
2018-10-03T17:51:21.249Z,17.20
2018-10-03T17:53:51.639Z,17.30
2018-10-03T17:56:21.097Z,17.20
2018-10-03T17:58:50.538Z,17.20
2018-10-03T18:01:20.153Z,17.20
2018-10-03T18:03:49.595Z,17.20
2018-10-03T18:06:18.977Z,17.20
2018-10-03T18:08:48.560Z,17.20
2018-10-03T18:11:18.008Z,17.20
2018-10-03T18:13:47.515Z,17.20
2018-10-03T18:16:17.048Z,17.20
2018-10-03T18:18:46.572Z,17.20
2018-10-03T18:21:16.091Z,17.20
2018-10-03T18:23:45.603Z,17.20
2018-10-03T18:26:15.042Z,17.20
2018-10-03T18:28:44.424Z,17.20
2018-10-03T18:31:14.960Z,17.20
2018-10-03T18:33:47.439Z,17.20
2018-10-03T18:36:17.158Z,17.20
2018-10-03T18:38:46.954Z,17.20
2018-10-03T18:41:17.320Z,17.20
2018-10-03T18:43:47.138Z,17.20
2018-10-03T18:46:16.702Z,17.20
2018-10-03T18:48:46.214Z,17.20
2018-10-03T18:51:15.727Z,17.20
2018-10-03T18:53:45.410Z,17.20
2018-10-03T18:56:14.851Z,17.20
2018-10-03T18:58:44.463Z,17.20
2018-10-03T19:01:13.895Z,17.20
2018-10-03T19:03:43.313Z,17.20
2018-10-03T19:06:12.772Z,17.20
2018-10-03T19:08:42.214Z,17.20
2018-10-03T19:11:11.709Z,17.20
2018-10-03T19:13:41.211Z,17.10
2018-10-03T19:16:10.673Z,17.10
2018-10-03T19:18:40.045Z,17.10
2018-10-03T19:21:09.658Z,17.10
2018-10-03T19:23:39.123Z,17.10
2018-10-03T19:26:08.634Z,17.10
2018-10-03T19:28:38.111Z,17.10
2018-10-03T19:31:07.596Z,17.10
2018-10-03T19:33:37.622Z,17.00
2018-10-03T19:36:07.748Z,17.00
2018-10-03T19:38:37.224Z,17.00
2018-10-03T19:41:06.637Z,17.00
2018-10-03T19:43:37.395Z,17.00
2018-10-03T19:46:06.919Z,17.00
2018-10-03T19:48:36.503Z,17.00
2018-10-03T19:51:06.069Z,17.00
2018-10-03T19:53:37.028Z,17.00
2018-10-03T19:56:06.641Z,17.00
2018-10-03T19:58:36.183Z,17.00
2018-10-03T20:01:05.741Z,16.90
2018-10-03T20:03:35.255Z,17.00
2018-10-03T20:06:04.661Z,16.90
2018-10-03T20:08:34.320Z,17.00
2018-10-03T20:11:04.008Z,17.00
2018-10-03T20:13:33.441Z,16.90
2018-10-03T20:16:02.992Z,16.90
2018-10-03T20:18:32.415Z,16.90
2018-10-03T20:21:02.672Z,16.90
2018-10-03T20:23:32.066Z,16.90
2018-10-03T20:26:01.571Z,16.90
2018-10-03T20:28:33.922Z,16.90
2018-10-03T20:31:04.240Z,16.90
2018-10-03T20:33:33.578Z,16.90
2018-10-03T20:36:02.997Z,16.90
2018-10-03T20:38:32.360Z,16.90
2018-10-03T20:41:01.880Z,16.90
2018-10-03T20:43:31.358Z,16.90
2018-10-03T20:46:00.755Z,16.90
2018-10-03T20:48:30.167Z,16.90
2018-10-03T20:50:59.648Z,16.90
2018-10-03T20:53:29.093Z,16.90
2018-10-03T20:55:58.566Z,16.90
2018-10-03T20:58:28.032Z,16.90
2018-10-03T21:00:57.460Z,16.90
2018-10-03T21:03:26.996Z,16.90
2018-10-03T21:05:56.445Z,16.90
2018-10-03T21:08:25.860Z,16.90
2018-10-03T21:10:55.204Z,16.90
2018-10-03T21:13:24.735Z,16.90
2018-10-03T21:15:54.303Z,16.90
2018-10-03T21:18:23.874Z,16.90
2018-10-03T21:20:53.536Z,16.90
2018-10-03T21:23:23.033Z,16.90
2018-10-03T21:25:52.489Z,16.90
2018-10-03T21:28:22.010Z,16.90
2018-10-03T21:30:52.381Z,16.90
2018-10-03T21:33:22.401Z,16.90
2018-10-03T21:35:51.844Z,16.90
2018-10-03T21:38:21.461Z,16.90
2018-10-03T21:40:50.820Z,16.90
2018-10-03T21:43:20.240Z,16.90
2018-10-03T21:45:49.925Z,16.90
2018-10-03T21:48:19.350Z,16.90
2018-10-03T21:50:48.864Z,16.90
2018-10-03T21:53:18.313Z,16.80
2018-10-03T21:55:47.776Z,16.90
2018-10-03T21:58:17.217Z,16.80
2018-10-03T22:00:51.815Z,16.80
2018-10-03T22:03:21.355Z,16.80
2018-10-03T22:05:50.825Z,16.80
2018-10-03T22:08:20.248Z,16.80
2018-10-03T22:10:49.633Z,16.70
2018-10-03T22:13:19.046Z,16.70
2018-10-03T22:15:48.418Z,16.70
2018-10-03T22:18:17.932Z,16.70
2018-10-03T22:20:47.386Z,16.70
2018-10-03T22:23:16.785Z,16.60
2018-10-03T22:25:46.285Z,16.60
2018-10-03T22:28:15.798Z,16.60
2018-10-03T22:30:45.498Z,16.60
2018-10-03T22:33:14.891Z,16.60
2018-10-03T22:35:44.267Z,16.60
2018-10-03T22:38:13.654Z,16.50
2018-10-03T22:40:43.132Z,16.50
2018-10-03T22:43:12.821Z,16.50
2018-10-03T22:45:42.359Z,16.50
2018-10-03T22:48:12.371Z,16.50
2018-10-03T22:50:41.890Z,16.50
2018-10-03T22:53:11.849Z,16.40
2018-10-03T22:55:41.317Z,16.40
2018-10-03T22:58:10.720Z,16.40
2018-10-03T23:00:40.732Z,16.40
2018-10-03T23:03:10.463Z,16.40
2018-10-03T23:05:39.957Z,16.30
2018-10-03T23:08:09.438Z,16.30
2018-10-03T23:10:38.870Z,16.30
2018-10-03T23:13:08.272Z,16.30
2018-10-03T23:15:37.800Z,16.30
2018-10-03T23:18:07.548Z,16.30
2018-10-03T23:20:37.006Z,16.20
2018-10-03T23:23:06.504Z,16.20
2018-10-03T23:25:35.865Z,16.20
2018-10-03T23:28:05.581Z,16.20
2018-10-03T23:30:35.012Z,16.20
2018-10-03T23:33:04.453Z,16.20
2018-10-03T23:35:33.866Z,16.20
2018-10-03T23:38:03.361Z,16.20
2018-10-03T23:40:32.763Z,16.20
2018-10-03T23:43:02.373Z,16.20
2018-10-03T23:45:31.873Z,16.20
2018-10-03T23:48:01.306Z,16.20
2018-10-03T23:50:30.809Z,16.10
2018-10-03T23:53:00.710Z,16.10
2018-10-03T23:55:30.189Z,16.10
2018-10-03T23:57:59.872Z,16.10
